KAL5N RJTT-RKSS
Flight info
| Callsign | KAL5N |
|---|---|
| Flight time | N/A |
| Altitude | 40000 |
| Route | BEKLA Y18 PIGAP Y182 BIDIK Y16 SAPRA Y685 GUKDO GUKDO2T |
| Aircraft | A359/H-SDE2E3GHIJ3J4J5LM1ORWXY/LB1D1 |
Departure
| Time | 2026-05-07 14:31 |
|---|---|
| Airport | Tokyo Haneda International Airport (RJTT) |
Arrival
| Time | N/A |
|---|---|
| Airport | Gimpo International Airport (RKSS) |
| Time | Latitude | Longitude | Altitude | Speed | Heading |
|---|---|---|---|---|---|
| 2026-05-07 13:48 | 35.55167 | 139.78966 | 30 ft | 0 kts | 239° |
| 2026-05-07 14:13 | 35.55174 | 139.78979 | 30 ft | 4 kts | 242° |
| 2026-05-07 14:14 | 35.55185 | 139.79007 | 29 ft | 2 kts | 242° |
| 2026-05-07 14:14 | 35.55198 | 139.79029 | 29 ft | 4 kts | 198° |
| 2026-05-07 14:14 | 35.55219 | 139.79024 | 30 ft | 4 kts | 148° |
| 2026-05-07 14:14 | 35.55231 | 139.79016 | 29 ft | 0 kts | 151° |
| 2026-05-07 14:18 | 35.55230 | 139.79016 | 29 ft | 0 kts | 150° |
| 2026-05-07 14:18 | 35.55226 | 139.79023 | 28 ft | 4 kts | 135° |
| 2026-05-07 14:18 | 35.55221 | 139.79072 | 28 ft | 11 kts | 88° |
| 2026-05-07 14:19 | 35.55259 | 139.79162 | 29 ft | 16 kts | 59° |
| 2026-05-07 14:19 | 35.55270 | 139.79186 | 30 ft | 6 kts | 59° |
| 2026-05-07 14:19 | 35.55316 | 139.79263 | 29 ft | 16 kts | 39° |
| 2026-05-07 14:19 | 35.55375 | 139.79261 | 29 ft | 11 kts | 336° |
| 2026-05-07 14:20 | 35.55471 | 139.79194 | 29 ft | 21 kts | 330° |
| 2026-05-07 14:20 | 35.55623 | 139.79086 | 29 ft | 29 kts | 330° |
| 2026-05-07 14:20 | 35.55743 | 139.79000 | 29 ft | 22 kts | 330° |
| 2026-05-07 14:20 | 35.55830 | 139.78939 | 29 ft | 9 kts | 330° |
| 2026-05-07 14:21 | 35.55919 | 139.78876 | 29 ft | 20 kts | 330° |
| 2026-05-07 14:21 | 35.56065 | 139.78773 | 29 ft | 29 kts | 330° |
| 2026-05-07 14:21 | 35.56218 | 139.78665 | 29 ft | 22 kts | 330° |
| 2026-05-07 14:21 | 35.56324 | 139.78589 | 29 ft | 14 kts | 330° |
| 2026-05-07 14:22 | 35.56432 | 139.78512 | 29 ft | 11 kts | 331° |
| 2026-05-07 14:22 | 35.56508 | 139.78521 | 29 ft | 16 kts | 40° |
| 2026-05-07 14:22 | 35.56538 | 139.78572 | 29 ft | 0 kts | 64° |
| 2026-05-07 14:23 | 35.56542 | 139.78583 | 29 ft | 5 kts | 64° |
| 2026-05-07 14:23 | 35.56565 | 139.78661 | 30 ft | 11 kts | 92° |
| 2026-05-07 14:23 | 35.56514 | 139.78711 | 30 ft | 12 kts | 149° |
| 2026-05-07 14:23 | 35.56510 | 139.78714 | 30 ft | 0 kts | 149° |
| 2026-05-07 14:30 | 35.56497 | 139.78723 | 30 ft | 13 kts | 149° |
| 2026-05-07 14:30 | 35.56185 | 139.78944 | 30 ft | 89 kts | 150° |
| 2026-05-07 14:31 | 35.55449 | 139.79462 | 30 ft | 153 kts | 150° |
| 2026-05-07 14:31 | 35.54456 | 139.80215 | 535 ft | 168 kts | 151° |
| 2026-05-07 14:31 | 35.53485 | 139.80978 | 1373 ft | 170 kts | 153° |
| 2026-05-07 14:31 | 35.52503 | 139.81910 | 1938 ft | 186 kts | 141° |
| 2026-05-07 14:32 | 35.51616 | 139.83122 | 2559 ft | 195 kts | 131° |
| 2026-05-07 14:32 | 35.50749 | 139.84431 | 3229 ft | 201 kts | 133° |
| 2026-05-07 14:32 | 35.49830 | 139.85784 | 3782 ft | 210 kts | 134° |
| 2026-05-07 14:32 | 35.48901 | 139.87201 | 4380 ft | 219 kts | 133° |
| 2026-05-07 14:33 | 35.47908 | 139.88693 | 4858 ft | 235 kts | 139° |
| 2026-05-07 14:33 | 35.46696 | 139.90178 | 5229 ft | 260 kts | 134° |
| 2026-05-07 14:33 | 35.45888 | 139.92211 | 5792 ft | 281 kts | 103° |
| 2026-05-07 14:33 | 35.45873 | 139.94646 | 6558 ft | 290 kts | 87° |
| 2026-05-07 14:34 | 35.46328 | 139.97095 | 7296 ft | 300 kts | 67° |
| 2026-05-07 14:34 | 35.47603 | 139.99131 | 8068 ft | 306 kts | 34° |
| 2026-05-07 14:34 | 35.49499 | 140.00125 | 8904 ft | 301 kts | 4° |
| 2026-05-07 14:34 | 35.51629 | 140.00391 | 9767 ft | 304 kts | 355° |
| 2026-05-07 14:35 | 35.53681 | 140.00035 | 10427 ft | 304 kts | 334° |
| 2026-05-07 14:35 | 35.55414 | 139.98652 | 10829 ft | 307 kts | 306° |
| 2026-05-07 14:35 | 35.56494 | 139.96373 | 11267 ft | 316 kts | 288° |
| 2026-05-07 14:35 | 35.57324 | 139.93811 | 11841 ft | 327 kts | 288° |
| 2026-05-07 14:36 | 35.58187 | 139.91197 | 12572 ft | 334 kts | 288° |
| 2026-05-07 14:36 | 35.59084 | 139.88532 | 13299 ft | 340 kts | 288° |
| 2026-05-07 14:36 | 35.59996 | 139.85844 | 13979 ft | 346 kts | 289° |
| 2026-05-07 14:36 | 35.60924 | 139.83119 | 14599 ft | 351 kts | 289° |
| 2026-05-07 14:37 | 35.61879 | 139.80318 | 15243 ft | 356 kts | 289° |
| 2026-05-07 14:37 | 35.63813 | 139.74644 | 16526 ft | 364 kts | 289° |
| 2026-05-07 14:37 | 35.64799 | 139.71750 | 17164 ft | 369 kts | 289° |
| 2026-05-07 14:38 | 35.65793 | 139.68830 | 17822 ft | 373 kts | 289° |
| 2026-05-07 14:38 | 35.66788 | 139.65905 | 18412 ft | 377 kts | 289° |
| 2026-05-07 14:38 | 35.67805 | 139.62913 | 18987 ft | 381 kts | 289° |
| 2026-05-07 14:38 | 35.68830 | 139.59892 | 19587 ft | 384 kts | 289° |
| 2026-05-07 14:39 | 35.69862 | 139.56850 | 20213 ft | 387 kts | 289° |
| 2026-05-07 14:39 | 35.70901 | 139.53781 | 20837 ft | 390 kts | 289° |
| 2026-05-07 14:39 | 35.71950 | 139.50681 | 21501 ft | 392 kts | 289° |
| 2026-05-07 14:39 | 35.72997 | 139.47585 | 22182 ft | 394 kts | 289° |
| 2026-05-07 14:40 | 35.74055 | 139.44453 | 22813 ft | 398 kts | 289° |
| 2026-05-07 14:40 | 35.75122 | 139.41288 | 23438 ft | 402 kts | 289° |
| 2026-05-07 14:40 | 35.75834 | 139.39175 | 23810 ft | 404 kts | 289° |
| 2026-05-07 14:40 | 35.76915 | 139.35966 | 24348 ft | 408 kts | 289° |
| 2026-05-07 14:41 | 35.78005 | 139.32722 | 24878 ft | 411 kts | 288° |
| 2026-05-07 14:41 | 35.79101 | 139.29462 | 25423 ft | 414 kts | 288° |
| 2026-05-07 14:41 | 35.80207 | 139.26165 | 25955 ft | 418 kts | 288° |
| 2026-05-07 14:41 | 35.81321 | 139.22843 | 26444 ft | 422 kts | 288° |
| 2026-05-07 14:42 | 35.82349 | 139.19446 | 26987 ft | 422 kts | 283° |
| 2026-05-07 14:42 | 35.82969 | 139.15932 | 27567 ft | 419 kts | 274° |
| 2026-05-07 14:42 | 35.83063 | 139.14764 | 27727 ft | 419 kts | 270° |
| 2026-05-07 14:45 | 35.82943 | 139.06151 | 28980 ft | 424 kts | 263° |
| 2026-05-07 14:45 | 35.82728 | 139.02519 | 29516 ft | 427 kts | 263° |
| 2026-05-07 14:45 | 35.82500 | 138.98878 | 29997 ft | 430 kts | 263° |
| 2026-05-07 14:45 | 35.82279 | 138.95240 | 30400 ft | 433 kts | 263° |
| 2026-05-07 14:46 | 35.82066 | 138.91510 | 30824 ft | 436 kts | 263° |
| 2026-05-07 14:46 | 35.81865 | 138.87770 | 31241 ft | 438 kts | 263° |
| 2026-05-07 14:46 | 35.81672 | 138.84010 | 31621 ft | 440 kts | 264° |
| 2026-05-07 14:46 | 35.81482 | 138.80245 | 32027 ft | 442 kts | 264° |
| 2026-05-07 14:47 | 35.81291 | 138.76457 | 32425 ft | 444 kts | 264° |
| 2026-05-07 14:47 | 35.81098 | 138.72655 | 32768 ft | 447 kts | 264° |
| 2026-05-07 14:47 | 35.80902 | 138.68816 | 33123 ft | 448 kts | 264° |
| 2026-05-07 14:47 | 35.80705 | 138.64971 | 33507 ft | 450 kts | 264° |
| 2026-05-07 14:48 | 35.80507 | 138.61099 | 33825 ft | 452 kts | 263° |
| 2026-05-07 14:48 | 35.80303 | 138.57229 | 34141 ft | 454 kts | 263° |
| 2026-05-07 14:48 | 35.80097 | 138.53362 | 34468 ft | 453 kts | 263° |
| 2026-05-07 14:48 | 35.79893 | 138.49548 | 34815 ft | 453 kts | 263° |
| 2026-05-07 14:49 | 35.79685 | 138.45678 | 35194 ft | 452 kts | 263° |
| 2026-05-07 14:49 | 35.79476 | 138.41803 | 35566 ft | 451 kts | 263° |
| 2026-05-07 14:49 | 35.79274 | 138.37961 | 35920 ft | 451 kts | 263° |
| 2026-05-07 14:49 | 35.79241 | 138.34082 | 36242 ft | 453 kts | 270° |
| 2026-05-07 14:50 | 35.79603 | 138.30225 | 36553 ft | 457 kts | 277° |
| 2026-05-07 14:50 | 35.80384 | 138.26408 | 36855 ft | 460 kts | 282° |
| 2026-05-07 14:50 | 35.81334 | 138.22652 | 37213 ft | 459 kts | 283° |
| 2026-05-07 14:50 | 35.82333 | 138.18939 | 37336 ft | 463 kts | 284° |
| 2026-05-07 14:51 | 35.83363 | 138.15205 | 37553 ft | 464 kts | 284° |
| 2026-05-07 14:51 | 35.84408 | 138.11439 | 37862 ft | 463 kts | 284° |
| 2026-05-07 14:51 | 35.85444 | 138.07691 | 38187 ft | 462 kts | 284° |
| 2026-05-07 14:51 | 35.86473 | 138.03939 | 38448 ft | 462 kts | 284° |
| 2026-05-07 14:52 | 35.87479 | 138.00249 | 38722 ft | 461 kts | 283° |
| 2026-05-07 14:52 | 35.88490 | 137.96515 | 39020 ft | 459 kts | 283° |
| 2026-05-07 14:52 | 35.89501 | 137.92766 | 39292 ft | 457 kts | 283° |
| 2026-05-07 14:52 | 35.90498 | 137.89057 | 39548 ft | 456 kts | 283° |
| 2026-05-07 14:53 | 35.91491 | 137.85354 | 39820 ft | 455 kts | 283° |
| 2026-05-07 14:53 | 35.92485 | 137.81633 | 39957 ft | 456 kts | 283° |
| 2026-05-07 14:53 | 35.94470 | 137.74219 | 39967 ft | 453 kts | 284° |
| 2026-05-07 14:54 | 35.96451 | 137.66843 | 39978 ft | 452 kts | 283° |
| 2026-05-07 14:54 | 35.98402 | 137.59522 | 39982 ft | 451 kts | 283° |
| 2026-05-07 14:55 | 36.00216 | 137.52636 | 39975 ft | 450 kts | 282° |
| 2026-05-07 14:55 | 36.01230 | 137.45118 | 39977 ft | 441 kts | 268° |
| 2026-05-07 14:56 | 36.01335 | 137.37559 | 39963 ft | 440 kts | 266° |
| 2026-05-07 14:56 | 36.01308 | 137.29995 | 39966 ft | 439 kts | 266° |
| 2026-05-07 14:57 | 36.01277 | 137.23356 | 39966 ft | 439 kts | 266° |
| 2026-05-07 14:57 | 36.01251 | 137.15806 | 39962 ft | 439 kts | 266° |
| 2026-05-07 14:58 | 36.01230 | 137.08256 | 39953 ft | 439 kts | 266° |
| 2026-05-07 14:58 | 36.01206 | 137.00719 | 39961 ft | 439 kts | 266° |
| 2026-05-07 14:59 | 36.01177 | 136.93180 | 39945 ft | 438 kts | 266° |
| 2026-05-07 14:59 | 36.01142 | 136.85660 | 39945 ft | 438 kts | 266° |
| 2026-05-07 15:00 | 36.01103 | 136.78184 | 39940 ft | 438 kts | 266° |
| 2026-05-07 15:00 | 36.01061 | 136.70673 | 39941 ft | 437 kts | 266° |
| 2026-05-07 15:01 | 36.01012 | 136.63148 | 39935 ft | 437 kts | 266° |
| 2026-05-07 15:01 | 36.00958 | 136.55653 | 39929 ft | 436 kts | 266° |
| 2026-05-07 15:02 | 36.00901 | 136.48167 | 39919 ft | 436 kts | 266° |
| 2026-05-07 15:02 | 36.00839 | 136.40728 | 39925 ft | 436 kts | 266° |
| 2026-05-07 15:03 | 36.00773 | 136.33236 | 39919 ft | 436 kts | 266° |
| 2026-05-07 15:03 | 36.00700 | 136.25732 | 39909 ft | 436 kts | 266° |
| 2026-05-07 15:04 | 36.00623 | 136.18243 | 39899 ft | 436 kts | 266° |
| 2026-05-07 15:04 | 36.00541 | 136.10752 | 39897 ft | 437 kts | 267° |
| 2026-05-07 15:05 | 36.00456 | 136.03286 | 39897 ft | 437 kts | 266° |
| 2026-05-07 15:05 | 36.00365 | 135.95789 | 39901 ft | 437 kts | 266° |
| 2026-05-07 15:06 | 36.00271 | 135.88319 | 39898 ft | 437 kts | 266° |
| 2026-05-07 15:06 | 36.00171 | 135.80809 | 39897 ft | 437 kts | 266° |
| 2026-05-07 15:07 | 36.00066 | 135.73313 | 39895 ft | 436 kts | 266° |
| 2026-05-07 15:07 | 35.99957 | 135.65827 | 39889 ft | 435 kts | 266° |
| 2026-05-07 15:08 | 35.99843 | 135.58354 | 39894 ft | 435 kts | 266° |
| 2026-05-07 15:08 | 35.99725 | 135.50893 | 39891 ft | 435 kts | 266° |
| 2026-05-07 15:09 | 35.99602 | 135.43414 | 39879 ft | 435 kts | 266° |
| 2026-05-07 15:09 | 35.99475 | 135.35983 | 39896 ft | 434 kts | 267° |
| 2026-05-07 15:10 | 35.99345 | 135.28570 | 39885 ft | 431 kts | 267° |
| 2026-05-07 15:10 | 35.99210 | 135.21183 | 39885 ft | 430 kts | 267° |
| 2026-05-07 15:11 | 35.99070 | 135.13797 | 39896 ft | 430 kts | 267° |
| 2026-05-07 15:11 | 35.98925 | 135.06408 | 39891 ft | 430 kts | 267° |
| 2026-05-07 15:12 | 35.98779 | 134.99114 | 39879 ft | 430 kts | 267° |
| 2026-05-07 15:12 | 35.98626 | 134.91738 | 39887 ft | 427 kts | 266° |
| 2026-05-07 15:13 | 35.98470 | 134.84403 | 39888 ft | 426 kts | 266° |
| 2026-05-07 15:13 | 35.98310 | 134.77138 | 39885 ft | 426 kts | 266° |
| 2026-05-07 15:14 | 35.98150 | 134.69822 | 39883 ft | 426 kts | 266° |
| 2026-05-07 15:14 | 35.97978 | 134.62547 | 39884 ft | 426 kts | 266° |
| 2026-05-07 15:15 | 35.97801 | 134.55234 | 39887 ft | 426 kts | 266° |
| 2026-05-07 15:15 | 35.97622 | 134.47935 | 39884 ft | 425 kts | 266° |
| 2026-05-07 15:16 | 35.97439 | 134.40643 | 39883 ft | 425 kts | 266° |
| 2026-05-07 15:16 | 35.97252 | 134.33366 | 39883 ft | 425 kts | 266° |
| 2026-05-07 15:17 | 35.97059 | 134.26056 | 39877 ft | 425 kts | 266° |
| 2026-05-07 15:17 | 35.96863 | 134.18762 | 39880 ft | 425 kts | 266° |
| 2026-05-07 15:18 | 35.96663 | 134.11471 | 39880 ft | 424 kts | 266° |
| 2026-05-07 15:18 | 35.96460 | 134.04254 | 39878 ft | 422 kts | 266° |
| 2026-05-07 15:19 | 35.96253 | 133.97027 | 39875 ft | 422 kts | 266° |
| 2026-05-07 15:19 | 35.96040 | 133.89781 | 39875 ft | 422 kts | 266° |
| 2026-05-07 15:20 | 35.95822 | 133.82554 | 39875 ft | 421 kts | 266° |
| 2026-05-07 15:20 | 35.95599 | 133.75302 | 39875 ft | 421 kts | 266° |
| 2026-05-07 15:21 | 35.95374 | 133.68095 | 39877 ft | 419 kts | 265° |
| 2026-05-07 15:21 | 35.95146 | 133.60953 | 39875 ft | 419 kts | 265° |
| 2026-05-07 15:22 | 35.94913 | 133.53777 | 39873 ft | 418 kts | 265° |
| 2026-05-07 15:22 | 35.94675 | 133.46597 | 39874 ft | 419 kts | 265° |
| 2026-05-07 15:23 | 35.94473 | 133.40605 | 39878 ft | 419 kts | 265° |
| 2026-05-07 15:23 | 35.94228 | 133.33411 | 39873 ft | 418 kts | 265° |
| 2026-05-07 15:24 | 35.93938 | 133.25088 | 39870 ft | 418 kts | 265° |
| 2026-05-07 15:24 | 35.93727 | 133.19131 | 39874 ft | 417 kts | 265° |
| 2026-05-07 15:25 | 35.93471 | 133.12005 | 39857 ft | 415 kts | 265° |
| 2026-05-07 15:25 | 35.93210 | 133.04902 | 39870 ft | 417 kts | 265° |
| 2026-05-07 15:26 | 35.92945 | 132.97750 | 39870 ft | 416 kts | 265° |
| 2026-05-07 15:26 | 35.92677 | 132.90631 | 39869 ft | 415 kts | 265° |
| 2026-05-07 15:27 | 35.92404 | 132.83523 | 39867 ft | 414 kts | 265° |
| 2026-05-07 15:27 | 35.92127 | 132.76408 | 39864 ft | 414 kts | 265° |
| 2026-05-07 15:28 | 35.91846 | 132.69331 | 39861 ft | 416 kts | 265° |
| 2026-05-07 15:28 | 35.91560 | 132.62194 | 39861 ft | 417 kts | 265° |
| 2026-05-07 15:29 | 35.91270 | 132.55044 | 39867 ft | 415 kts | 265° |
| 2026-05-07 15:29 | 35.90977 | 132.47936 | 39864 ft | 414 kts | 265° |
| 2026-05-07 15:30 | 35.90679 | 132.40843 | 39864 ft | 414 kts | 265° |
| 2026-05-07 15:30 | 35.90380 | 132.33798 | 39860 ft | 414 kts | 265° |
| 2026-05-07 15:31 | 35.90074 | 132.26708 | 39865 ft | 414 kts | 265° |
| 2026-05-07 15:31 | 35.89764 | 132.19602 | 39880 ft | 414 kts | 265° |
| 2026-05-07 15:32 | 35.89451 | 132.12507 | 39864 ft | 414 kts | 264° |
| 2026-05-07 15:32 | 35.89135 | 132.05474 | 39862 ft | 413 kts | 264° |
| 2026-05-07 15:33 | 35.88812 | 131.98366 | 39874 ft | 413 kts | 264° |
| 2026-05-07 15:33 | 35.88486 | 131.91306 | 39859 ft | 414 kts | 264° |
| 2026-05-07 15:34 | 35.88156 | 131.84215 | 39854 ft | 414 kts | 264° |
| 2026-05-07 15:34 | 35.87821 | 131.77112 | 39878 ft | 414 kts | 264° |
| 2026-05-07 15:35 | 35.87483 | 131.70028 | 39854 ft | 412 kts | 264° |
| 2026-05-07 15:35 | 35.87143 | 131.62993 | 39861 ft | 411 kts | 264° |
| 2026-05-07 15:36 | 35.86798 | 131.55961 | 39869 ft | 411 kts | 264° |
| 2026-05-07 15:36 | 35.86451 | 131.48957 | 39854 ft | 412 kts | 264° |
| 2026-05-07 15:37 | 35.86098 | 131.41919 | 39854 ft | 412 kts | 264° |
| 2026-05-07 15:37 | 35.85741 | 131.34888 | 39852 ft | 411 kts | 264° |
| 2026-05-07 15:38 | 35.85379 | 131.27827 | 39853 ft | 410 kts | 264° |
| 2026-05-07 15:38 | 35.85015 | 131.20821 | 39853 ft | 410 kts | 264° |
| 2026-05-07 15:39 | 35.84646 | 131.13796 | 39850 ft | 411 kts | 264° |
| 2026-05-07 15:39 | 35.84274 | 131.06775 | 39852 ft | 410 kts | 264° |
| 2026-05-07 15:40 | 35.83899 | 130.99798 | 39852 ft | 410 kts | 264° |
| 2026-05-07 15:40 | 35.83519 | 130.92782 | 39856 ft | 410 kts | 264° |
| 2026-05-07 15:41 | 35.83134 | 130.85770 | 39853 ft | 409 kts | 264° |
| 2026-05-07 15:41 | 35.82747 | 130.78773 | 39857 ft | 409 kts | 264° |
| 2026-05-07 15:42 | 35.82598 | 130.71763 | 39852 ft | 412 kts | 271° |